Observations for MANCHESTER INTL, United Kingdom (EGCC)

EGCC 180520Z AUTO 27007KT 9999 BKN036 14/10 Q1015 NOSIG 
EGCC 180450Z AUTO 26006KT 220V290 9999 SCT024 BKN040 13/11 Q1015 NOSIG  
EGCC 180420Z AUTO 27004KT 230V290 9999 SCT026 BKN032 BKN043 13/11 Q1015 NOSIG   
EGCC 180350Z AUTO 27007KT 9999 -RA OVC023 13/12 Q1015 NOSIG 
EGCC 180320Z AUTO 27011KT 9999 -RA SCT012 OVC018 14/13 Q1014 NOSIG  
EGCC 180250Z AUTO 25008KT 9999 -RA BKN016 OVC023 14/13 Q1014 TEMPO BKN014   
EGCC 180220Z AUTO 24009KT 9999 -RA BKN011 OVC020 14/13 Q1014 TEMPO BKN016   
EGCC 180150Z AUTO 24008KT 9999 SCT013 BKN018 OVC023 15/13 Q1014 TEMPO BKN013
EGCC 180120Z AUTO 22006KT 9999 BKN013 BKN021 OVC034 15/13 Q1014 TEMPO BKN016
EGCC 180050Z AUTO 22007KT 9999 SCT013 OVC018 15/13 Q1014 TEMPO BKN014   
EGCC 180020Z AUTO 22007KT 9999 SCT021 BKN025 OVC047 15/13 Q1014 TEMPO BKN014
EGCC 172350Z AUTO 22008KT 9999 BKN015 OVC025 15/13 Q1014 TEMPO BKN014   
EGCC 172320Z AUTO 21007KT 9999 BKN014 OVC019 15/13 Q1014 TEMPO BKN016   
EGCC 172250Z AUTO 22007KT 9999 BKN015 OVC019 16/13 Q1013 TEMPO BKN014   
EGCC 172220Z AUTO 22007KT 9999 OVC014 16/13 Q1013 TEMPO BKN016  
EGCC 172150Z AUTO 21007KT 160V230 9999 BKN016 OVC020 16/14 Q1013 NOSIG  
EGCC 172120Z AUTO 20006KT 9999 BKN018 OVC037 16/13 Q1013 NOSIG  
EGCC 172050Z AUTO 20008KT 170V240 9999 BKN022 17/13 Q1013 NOSIG 
EGCC 172020Z AUTO 21007KT 9999 FEW022 SCT029 BKN034 17/14 Q1012 NOSIG   
EGCC 171950Z AUTO 20006KT 170V230 9999 FEW022 BKN035 17/14 Q1012 NOSIG  
EGCC 171920Z 21006KT 170V230 9999 FEW018 BKN034 17/14 Q1012 NOSIG   
EGCC 171850Z 20007KT 170V240 9999 FEW018 SCT030 17/14 Q1012 NOSIG   
EGCC 171820Z AUTO 19006KT 160V230 9999 BKN023 OVC031 16/14 Q1012 NOSIG  
EGCC 171750Z AUTO 19007KT 150V220 9999 FEW014 BKN023 OVC027 16/13 Q1012 NOSIG   
EGCC 171720Z AUTO 19006KT 160V220 9999 BKN013 OVC024 16/13 Q1012 NOSIG  
EGCC 171650Z 19007KT 140V220 9999 BKN015 15/13 Q1012 TEMPO BKN012   
EGCC 171620Z 20008KT 150V230 9999 BKN016 16/13 Q1012 NOSIG  
EGCC 171550Z 18007KT 150V230 9999 VCSH FEW018 BKN024 16/13 Q1012 NOSIG  
EGCC 171520Z 19009KT 9999 VCSH FEW018 BKN024 16/12 Q1012 NOSIG  
EGCC 171450Z 19007KT 140V220 9999 VCSH BKN024 16/11 Q1012 NOSIG 
EGCC 171420Z AUTO 19006KT 170V230 9999 OVC023 16/11 Q1013 NOSIG 
EGCC 171350Z AUTO 19008KT 150V230 9999 OVC024 16/10 Q1013   
EGCC 171320Z AUTO 19006KT 150V230 9999 OVC027 16/10 Q1013 NOSIG 
EGCC 171250Z AUTO 19006KT 140V240 9999 OVC028 16/10 Q1013   
EGCC 171220Z AUTO 20007KT 160V240 9999 BKN030 OVC036 16/09 Q1013 NOSIG  
EGCC 171150Z AUTO 22009KT 9999 BKN037 16/09 Q1013 NOSIG 
EGCC 171120Z AUTO 20008KT 170V230 9999 BKN035 BKN041 16/09 Q1013 NOSIG  
EGCC 171050Z AUTO 22010KT 180V240 9999 BKN031 16/09 Q1013 NOSIG 
EGCC 171020Z AUTO 24010KT 9999 BKN031 BKN046 16/08 Q1013 NOSIG  
EGCC 170950Z AUTO 23009KT 9999 SCT027 BKN032 BKN046 15/09 Q1013 NOSIG   
EGCC 170920Z AUTO 21008KT 180V250 9999 SCT024 BKN036 BKN043 15/10 Q1013 NOSIG   
EGCC 170850Z AUTO 23009KT 9999 BKN019 BKN024 OVC045 14/10 Q1013 NOSIG   
EGCC 170820Z AUTO 22008KT 180V250 9999 SCT019 BKN033 14/10 Q1013 NOSIG  
EGCC 170750Z AUTO 21006KT 180V240 9999 FEW037 BKN047 14/10 Q1013 NOSIG  
EGCC 170720Z AUTO 21006KT 180V240 9999 BKN031 13/10 Q1013 NOSIG 
EGCC 170650Z AUTO 23010KT 9999 OVC038 13/10 Q1013 NOSIG 
EGCC 170620Z AUTO 22005KT 170V240 9999 OVC038 13/10 Q1013 NOSIG 
EGCC 170550Z AUTO 22005KT 9999 OVC045 13/10 Q1012 NOSIG 
EGCC 170520Z AUTO 23008KT 9999 FEW025 OVC045 12/10 Q1012 NOSIG  
EGCC 170450Z AUTO 21005KT 9999 SCT026 BKN039 OVC048 12/10 Q1012 NOSIG